createdAt,value
2019-05-29T00:00:35.314Z,7.67
2019-05-29T00:03:06.147Z,7.58
2019-05-29T00:05:35.487Z,7.51
2019-05-29T00:08:06.181Z,7.46
2019-05-29T00:10:35.517Z,7.45
2019-05-29T00:13:06.114Z,7.47
2019-05-29T00:15:35.389Z,7.46
2019-05-29T00:18:04.609Z,7.46
2019-05-29T00:20:33.758Z,7.41
2019-05-29T00:23:02.954Z,7.37
2019-05-29T00:25:32.107Z,7.32
2019-05-29T00:28:01.245Z,7.28
2019-05-29T00:30:30.424Z,7.21
2019-05-29T00:33:02.138Z,7.13
2019-05-29T00:35:31.261Z,7.08
2019-05-29T00:38:00.449Z,7.00
2019-05-29T00:40:30.191Z,7.01
2019-05-29T00:42:59.334Z,7.03
2019-05-29T00:45:28.962Z,7.05
2019-05-29T00:47:58.499Z,7.07
2019-05-29T00:50:27.776Z,7.08
2019-05-29T00:52:57.291Z,7.09
2019-05-29T00:55:26.631Z,7.09
2019-05-29T00:57:55.788Z,7.08
2019-05-29T01:00:26.588Z,7.03
2019-05-29T01:02:55.884Z,7.02
2019-05-29T01:05:25.306Z,6.99
2019-05-29T01:07:55.342Z,6.96
2019-05-29T01:10:24.502Z,6.94
2019-05-29T01:12:53.735Z,6.91
2019-05-29T01:15:23.092Z,6.90
2019-05-29T01:17:52.241Z,6.88
2019-05-29T01:20:22.042Z,6.87
2019-05-29T01:22:50.815Z,6.86
2019-05-29T01:25:20.551Z,6.85
2019-05-29T01:27:49.669Z,6.83
2019-05-29T01:30:19.360Z,6.82
2019-05-29T01:32:48.036Z,6.82
2019-05-29T01:35:17.847Z,6.83
2019-05-29T01:37:46.675Z,6.82
2019-05-29T01:40:23.127Z,6.77
2019-05-29T01:42:49.875Z,6.73
2019-05-29T01:45:19.480Z,6.64
2019-05-29T01:47:48.648Z,6.57
2019-05-29T01:50:17.835Z,6.55
2019-05-29T01:52:47.019Z,6.56
2019-05-29T01:55:17.593Z,6.57
2019-05-29T01:57:49.227Z,6.59
2019-05-29T02:00:20.135Z,6.60
2019-05-29T02:02:49.388Z,6.59
2019-05-29T02:05:38.382Z,6.60
2019-05-29T02:08:07.533Z,6.60
2019-05-29T02:10:37.009Z,6.56
2019-05-29T02:13:07.788Z,6.52
2019-05-29T02:15:37.014Z,6.48
2019-05-29T02:18:06.813Z,6.41
2019-05-29T02:20:36.309Z,6.35
2019-05-29T02:23:07.269Z,6.26
2019-05-29T02:25:36.791Z,5.99
2019-05-29T02:28:05.938Z,5.73
2019-05-29T02:30:35.153Z,5.43
2019-05-29T02:33:04.433Z,5.11
2019-05-29T02:35:33.613Z,4.93
2019-05-29T02:38:05.134Z,4.87
2019-05-29T02:40:34.536Z,4.90
2019-05-29T02:43:03.725Z,4.96
2019-05-29T02:45:52.841Z,5.00
2019-05-29T02:48:03.746Z,5.04
2019-05-29T02:50:33.187Z,5.10
2019-05-29T02:53:02.348Z,5.14
2019-05-29T02:55:31.515Z,5.19
2019-05-29T02:58:00.783Z,5.25
2019-05-29T03:00:50.984Z,5.30
2019-05-29T03:03:21.650Z,5.33
2019-05-29T03:05:51.459Z,5.34
2019-05-29T03:08:22.116Z,5.35
2019-05-29T03:10:51.808Z,5.35
2019-05-29T03:13:20.963Z,5.28
2019-05-29T03:16:08.321Z,5.27
2019-05-29T03:18:21.338Z,5.23
2019-05-29T03:20:50.504Z,5.17
2019-05-29T03:23:20.165Z,5.19
2019-05-29T03:25:49.339Z,5.21
2019-05-29T03:28:18.517Z,5.20
2019-05-29T03:30:47.697Z,5.12
2019-05-29T03:33:17.814Z,5.15
2019-05-29T03:35:48.614Z,5.19
2019-05-29T03:38:17.990Z,5.25
2019-05-29T03:40:47.167Z,5.28
2019-05-29T03:43:16.330Z,5.24
2019-05-29T03:45:45.574Z,5.13
2019-05-29T03:48:14.747Z,5.06
2019-05-29T03:50:43.897Z,5.05
2019-05-29T03:53:13.055Z,4.97
2019-05-29T03:55:42.242Z,4.92
2019-05-29T03:58:11.405Z,4.94
2019-05-29T04:00:46.025Z,4.99
2019-05-29T04:03:11.835Z,5.06
2019-05-29T04:05:41.418Z,5.13
2019-05-29T04:08:10.592Z,5.11
2019-05-29T04:10:39.923Z,4.99
2019-05-29T04:13:09.097Z,4.88
2019-05-29T04:15:39.634Z,4.80
2019-05-29T04:18:08.865Z,4.72
2019-05-29T04:20:40.565Z,4.58
2019-05-29T04:23:11.228Z,4.45
2019-05-29T04:25:42.846Z,4.37
2019-05-29T04:28:11.290Z,4.37
2019-05-29T04:30:40.439Z,4.39
2019-05-29T04:33:09.660Z,4.43
2019-05-29T04:35:39.704Z,4.41
2019-05-29T04:38:09.147Z,4.40
2019-05-29T04:40:39.662Z,4.41
2019-05-29T04:43:09.937Z,4.48
2019-05-29T04:45:40.222Z,4.55
2019-05-29T04:48:10.404Z,4.65
2019-05-29T04:50:40.713Z,4.76
2019-05-29T04:53:10.947Z,4.85
2019-05-29T04:55:40.179Z,4.95
2019-05-29T04:58:09.321Z,5.04
2019-05-29T05:00:39.374Z,5.13
2019-05-29T05:03:08.621Z,5.28
2019-05-29T05:05:37.775Z,5.45
2019-05-29T05:08:06.938Z,5.61
2019-05-29T05:10:42.001Z,5.81
2019-05-29T05:13:11.162Z,5.98
2019-05-29T05:15:40.404Z,6.18
2019-05-29T05:18:09.697Z,6.34
2019-05-29T05:20:40.225Z,6.50
2019-05-29T05:23:09.648Z,6.66
2019-05-29T05:25:41.031Z,6.82
2019-05-29T05:28:10.740Z,6.96
2019-05-29T05:30:40.920Z,7.12
2019-05-29T05:33:10.259Z,7.27
2019-05-29T05:35:41.395Z,7.42
2019-05-29T05:38:16.661Z,7.56
2019-05-29T05:40:45.823Z,7.70
2019-05-29T05:43:23.639Z,7.86
2019-05-29T05:45:45.898Z,7.98
2019-05-29T05:48:15.070Z,8.12
2019-05-29T05:50:44.242Z,8.29
2019-05-29T05:53:13.487Z,8.46
2019-05-29T05:55:42.667Z,8.59
2019-05-29T05:58:11.896Z,8.70
2019-05-29T06:00:49.275Z,8.79
2019-05-29T06:03:18.482Z,8.90
2019-05-29T06:05:47.643Z,9.01
2019-05-29T06:08:16.862Z,9.12
2019-05-29T06:10:46.025Z,9.25
2019-05-29T06:13:15.206Z,9.39
2019-05-29T06:15:44.368Z,9.51
2019-05-29T06:18:21.159Z,9.63
2019-05-29T06:20:44.781Z,9.71
2019-05-29T06:23:13.951Z,9.83
2019-05-29T06:25:43.857Z,9.94
2019-05-29T06:28:13.149Z,10.04
2019-05-29T06:30:44.928Z,10.16
2019-05-29T06:33:13.562Z,10.28
2019-05-29T06:35:43.778Z,10.38
2019-05-29T06:38:13.095Z,10.46
2019-05-29T06:40:45.061Z,10.56
2019-05-29T06:43:24.815Z,10.63
2019-05-29T06:45:55.488Z,10.72
2019-05-29T06:48:42.996Z,10.80
2019-05-29T06:50:59.667Z,10.89
2019-05-29T06:53:28.844Z,10.96
2019-05-29T06:55:59.187Z,11.06
2019-05-29T06:58:28.894Z,11.16
2019-05-29T07:00:58.066Z,11.24
2019-05-29T07:03:27.269Z,11.32
2019-05-29T07:05:56.457Z,11.40
2019-05-29T07:08:38.058Z,11.51
2019-05-29T07:10:56.519Z,11.73
2019-05-29T07:13:25.696Z,12.03
2019-05-29T07:15:54.859Z,12.48
2019-05-29T07:18:24.070Z,12.99
2019-05-29T07:20:53.261Z,13.45
2019-05-29T07:23:22.416Z,13.92
2019-05-29T07:25:51.578Z,14.39
2019-05-29T07:28:20.755Z,14.91
2019-05-29T07:31:01.188Z,15.52
2019-05-29T07:33:20.858Z,16.26
2019-05-29T07:35:50.042Z,16.96
2019-05-29T07:38:19.194Z,17.70
2019-05-29T07:40:50.098Z,17.67
2019-05-29T07:43:19.268Z,17.30
2019-05-29T07:45:48.447Z,17.92
2019-05-29T07:48:17.611Z,16.84
2019-05-29T07:50:48.130Z,17.47
2019-05-29T07:53:18.270Z,18.78
2019-05-29T07:55:47.493Z,17.92
2019-05-29T07:58:19.872Z,17.14
2019-05-29T08:01:09.967Z,16.42
2019-05-29T08:03:22.300Z,17.30
2019-05-29T08:05:53.334Z,17.66
2019-05-29T08:08:23.160Z,18.77
2019-05-29T08:10:52.325Z,18.20
2019-05-29T08:13:21.513Z,18.77
2019-05-29T08:16:01.982Z,18.52
2019-05-29T08:18:21.588Z,18.12
2019-05-29T08:20:50.776Z,17.29
2019-05-29T08:23:19.945Z,16.88
2019-05-29T08:25:49.657Z,17.19
2019-05-29T08:28:18.935Z,16.65
2019-05-29T08:30:53.675Z,16.40
2019-05-29T08:33:19.051Z,16.82
2019-05-29T08:35:57.216Z,17.14
2019-05-29T08:38:19.111Z,17.38
2019-05-29T08:40:49.432Z,17.40
2019-05-29T08:43:18.838Z,17.44
2019-05-29T08:45:49.599Z,17.38
2019-05-29T08:48:19.006Z,17.46
2019-05-29T08:50:48.263Z,17.44
2019-05-29T08:53:17.425Z,17.49
2019-05-29T08:55:48.314Z,17.50
2019-05-29T08:58:17.986Z,17.57
2019-05-29T09:00:54.782Z,17.74
2019-05-29T09:03:22.149Z,17.75
2019-05-29T09:06:06.929Z,17.75
2019-05-29T09:08:22.222Z,17.79
2019-05-29T09:10:51.921Z,17.88
2019-05-29T09:13:21.566Z,17.89
2019-05-29T09:15:50.877Z,18.04
2019-05-29T09:18:21.697Z,18.14
2019-05-29T09:21:02.764Z,18.21
2019-05-29T09:23:23.179Z,18.19
2019-05-29T09:25:52.445Z,18.18
2019-05-29T09:28:22.149Z,18.18
2019-05-29T09:30:51.428Z,18.20
2019-05-29T09:33:21.862Z,18.26
2019-05-29T09:35:51.515Z,18.39
2019-05-29T09:38:20.992Z,18.49
2019-05-29T09:40:52.721Z,18.48
2019-05-29T09:43:26.534Z,18.45
2019-05-29T09:45:51.974Z,18.39
2019-05-29T09:48:24.795Z,18.36
2019-05-29T09:50:52.039Z,18.43
2019-05-29T09:53:22.143Z,18.45
2019-05-29T09:55:52.041Z,18.60
2019-05-29T09:58:22.184Z,18.59
2019-05-29T10:01:09.799Z,18.68
2019-05-29T10:03:22.334Z,18.69
2019-05-29T10:05:51.597Z,18.73
2019-05-29T10:08:20.784Z,18.79
2019-05-29T10:10:49.985Z,18.97
2019-05-29T10:13:20.079Z,19.05
2019-05-29T10:15:49.249Z,18.99
2019-05-29T10:18:32.155Z,18.95
2019-05-29T10:20:49.327Z,18.70
2019-05-29T10:23:20.119Z,18.54
2019-05-29T10:25:49.410Z,18.65
2019-05-29T10:28:18.587Z,18.72
2019-05-29T10:30:48.392Z,18.79
2019-05-29T10:33:17.640Z,18.96
2019-05-29T10:35:49.661Z,19.08
2019-05-29T10:38:17.731Z,19.20
2019-05-29T10:40:56.553Z,19.25
2019-05-29T10:43:33.066Z,19.25
2019-05-29T10:45:49.944Z,19.18
2019-05-29T10:48:19.232Z,19.14
2019-05-29T10:50:50.998Z,19.16
2019-05-29T10:53:19.337Z,19.27
2019-05-29T10:55:48.623Z,19.40
2019-05-29T10:58:19.926Z,19.35
2019-05-29T11:03:39.074Z,19.54
2019-05-29T11:06:08.527Z,19.55
2019-05-29T11:08:37.678Z,19.69
2019-05-29T11:11:06.891Z,19.81
2019-05-29T11:13:36.047Z,19.73
2019-05-29T11:16:05.405Z,19.61
2019-05-29T11:18:34.548Z,19.50
2019-05-29T11:21:03.707Z,19.64
2019-05-29T11:23:33.046Z,19.75
2019-05-29T11:26:02.218Z,19.75
2019-05-29T11:28:31.384Z,19.80
2019-05-29T11:31:06.017Z,20.03
2019-05-29T11:33:31.910Z,19.77
2019-05-29T11:36:12.372Z,19.87
2019-05-29T11:38:31.928Z,19.95
2019-05-29T11:41:24.510Z,19.99
2019-05-29T11:43:32.289Z,20.06
2019-05-29T11:46:01.998Z,20.22
2019-05-29T11:48:31.317Z,20.34
2019-05-29T11:51:02.446Z,20.42
2019-05-29T11:53:31.753Z,20.30
2019-05-29T11:56:02.084Z,20.26
2019-05-29T11:58:31.883Z,20.33
2019-05-29T12:01:01.330Z,20.18
2019-05-29T12:03:30.741Z,20.22
2019-05-29T12:05:59.901Z,20.20
2019-05-29T12:08:29.053Z,20.31
2019-05-29T12:10:59.385Z,20.30
2019-05-29T12:13:28.702Z,20.21
2019-05-29T12:15:57.862Z,20.23
2019-05-29T12:18:27.038Z,20.41
2019-05-29T12:20:56.328Z,20.46
2019-05-29T12:23:27.163Z,20.49
2019-05-29T12:26:16.160Z,20.47
2019-05-29T12:28:27.487Z,20.49
2019-05-29T12:30:56.993Z,20.16
2019-05-29T12:33:25.515Z,20.25
2019-05-29T12:35:54.956Z,20.27
2019-05-29T12:38:23.431Z,20.25
2019-05-29T12:40:53.466Z,20.26
2019-05-29T12:43:27.158Z,20.35
2019-05-29T12:45:53.672Z,20.56
2019-05-29T12:48:22.871Z,20.72
2019-05-29T12:50:53.892Z,20.79
2019-05-29T12:53:30.154Z,20.85
2019-05-29T12:55:54.104Z,20.81
2019-05-29T12:58:23.385Z,20.83
2019-05-29T13:00:54.255Z,20.89
2019-05-29T13:03:23.469Z,21.02
2019-05-29T13:05:52.684Z,21.01
2019-05-29T13:08:21.865Z,21.03
2019-05-29T13:10:51.054Z,20.97
2019-05-29T13:13:20.215Z,20.90
2019-05-29T13:15:49.397Z,20.90
2019-05-29T13:18:24.180Z,20.99
2019-05-29T13:20:54.744Z,21.05
2019-05-29T13:23:24.020Z,21.09
2019-05-29T13:26:01.735Z,21.18
2019-05-29T13:28:31.232Z,21.34
2019-05-29T13:31:01.895Z,21.45
2019-05-29T13:33:30.702Z,21.43
2019-05-29T13:36:00.252Z,21.38
2019-05-29T13:38:29.025Z,21.35
2019-05-29T13:41:00.469Z,21.35
2019-05-29T13:43:29.946Z,21.40
2019-05-29T13:45:59.089Z,21.38
2019-05-29T13:48:28.261Z,21.17
2019-05-29T13:51:03.679Z,21.17
2019-05-29T13:53:33.027Z,21.22
2019-05-29T13:56:04.215Z,21.40
2019-05-29T13:58:33.470Z,21.43
2019-05-29T14:01:04.172Z,21.44
2019-05-29T14:03:34.901Z,21.55
2019-05-29T14:06:09.471Z,21.75
2019-05-29T14:08:38.924Z,21.86
2019-05-29T14:11:09.898Z,21.82
2019-05-29T14:13:39.115Z,21.74
2019-05-29T14:16:08.545Z,21.76
2019-05-29T14:18:37.039Z,21.73
2019-05-29T14:21:07.312Z,21.71
2019-05-29T14:23:39.542Z,21.66
2019-05-29T14:26:14.375Z,21.57
2019-05-29T14:28:43.882Z,21.46
2019-05-29T14:31:13.377Z,21.59
2019-05-29T14:33:41.909Z,21.69
2019-05-29T14:36:11.464Z,21.76
2019-05-29T14:38:40.909Z,21.76
2019-05-29T14:41:10.244Z,21.73
2019-05-29T14:43:39.480Z,21.74
2019-05-29T14:46:10.084Z,21.74
2019-05-29T14:48:39.485Z,21.86
2019-05-29T14:51:08.770Z,21.85
2019-05-29T14:53:38.001Z,21.80
2019-05-29T14:56:08.757Z,21.81
2019-05-29T14:58:38.321Z,21.89
2019-05-29T15:01:07.178Z,21.94
2019-05-29T15:03:38.424Z,21.91
2019-05-29T15:06:07.721Z,21.97
2019-05-29T15:08:37.492Z,22.02
2019-05-29T15:11:07.904Z,21.89
2019-05-29T15:13:51.146Z,21.85
2019-05-29T15:16:20.439Z,21.85
2019-05-29T15:18:50.342Z,21.91
2019-05-29T15:21:20.984Z,21.87
2019-05-29T15:23:51.659Z,21.86
2019-05-29T15:26:20.965Z,21.76
2019-05-29T15:28:50.385Z,21.82
2019-05-29T15:31:19.591Z,21.85
2019-05-29T15:33:50.838Z,21.71
2019-05-29T15:36:20.000Z,21.59
2019-05-29T15:38:49.193Z,21.61
2019-05-29T15:41:18.373Z,21.61
2019-05-29T15:43:49.444Z,21.61
2019-05-29T15:46:21.839Z,21.44
2019-05-29T15:48:54.181Z,21.49
2019-05-29T15:51:23.372Z,21.50
2019-05-29T15:53:52.521Z,21.58
2019-05-29T15:56:27.825Z,21.61
2019-05-29T15:58:59.563Z,21.71
2019-05-29T16:01:28.732Z,21.59
2019-05-29T16:03:57.905Z,21.24
2019-05-29T16:06:27.088Z,21.39
2019-05-29T16:08:56.341Z,21.47
2019-05-29T16:11:25.897Z,21.49
2019-05-29T16:13:54.294Z,21.53
2019-05-29T16:16:24.365Z,21.51
2019-05-29T16:18:53.575Z,21.59
2019-05-29T16:21:23.205Z,21.67
2019-05-29T16:23:52.937Z,21.72
2019-05-29T16:26:22.371Z,21.73
2019-05-29T16:29:08.587Z,21.76
2019-05-29T16:31:38.140Z,21.75
2019-05-29T16:34:07.374Z,21.66
2019-05-29T16:36:36.616Z,21.55
2019-05-29T16:39:07.761Z,21.57
2019-05-29T16:41:37.184Z,21.66
2019-05-29T16:44:05.664Z,21.66
2019-05-29T16:46:34.854Z,21.68
2019-05-29T16:49:04.536Z,21.77
2019-05-29T16:51:33.993Z,21.85
2019-05-29T16:54:02.733Z,21.68
2019-05-29T16:56:32.026Z,21.62
2019-05-29T16:59:01.213Z,21.60
2019-05-29T17:01:33.085Z,21.69
2019-05-29T17:04:03.285Z,21.64
2019-05-29T17:06:34.225Z,21.61
2019-05-29T17:09:04.173Z,21.55
2019-05-29T17:11:34.803Z,21.52
2019-05-29T17:14:03.969Z,21.46
2019-05-29T17:16:33.708Z,21.38
2019-05-29T17:19:03.213Z,21.40
2019-05-29T17:21:31.759Z,21.38
2019-05-29T17:24:00.923Z,21.39
2019-05-29T17:26:30.081Z,21.46
2019-05-29T17:28:59.270Z,21.45
2019-05-29T17:31:28.460Z,21.40
2019-05-29T17:33:57.635Z,21.36
2019-05-29T17:36:29.134Z,21.37
2019-05-29T17:39:00.529Z,21.35
2019-05-29T17:41:30.029Z,21.18
2019-05-29T17:44:00.242Z,21.03
2019-05-29T17:46:29.465Z,20.93
2019-05-29T17:48:58.639Z,20.94
2019-05-29T17:51:27.936Z,21.01
2019-05-29T17:53:58.075Z,20.97
2019-05-29T17:56:36.314Z,20.92
2019-05-29T17:58:58.156Z,20.93
2019-05-29T18:01:30.738Z,20.96
2019-05-29T18:03:58.801Z,20.86
2019-05-29T18:06:29.903Z,20.78
2019-05-29T18:08:59.358Z,20.77
2019-05-29T18:11:27.821Z,20.77
2019-05-29T18:13:57.119Z,20.76
2019-05-29T18:16:27.683Z,20.72
2019-05-29T18:19:17.445Z,20.67
2019-05-29T18:21:46.833Z,20.59
2019-05-29T18:24:16.007Z,20.47
2019-05-29T18:26:47.297Z,20.40
2019-05-29T18:29:16.131Z,20.29
2019-05-29T18:31:45.309Z,20.18
2019-05-29T18:34:14.494Z,20.09
2019-05-29T18:36:43.705Z,20.05
2019-05-29T18:39:12.878Z,19.94
2019-05-29T18:41:42.023Z,19.85
2019-05-29T18:44:11.188Z,19.78
2019-05-29T18:46:40.677Z,19.71
2019-05-29T18:49:14.402Z,19.61
2019-05-29T18:51:40.810Z,19.57
2019-05-29T18:54:09.976Z,19.52
2019-05-29T18:56:39.290Z,19.46
2019-05-29T18:59:08.467Z,19.34
2019-05-29T19:01:37.673Z,19.18
2019-05-29T19:04:06.877Z,19.05
2019-05-29T19:06:36.045Z,18.92
2019-05-29T19:09:07.808Z,18.81
2019-05-29T19:11:36.994Z,18.74
2019-05-29T19:14:06.147Z,18.68
2019-05-29T19:16:35.310Z,18.61
2019-05-29T19:19:05.238Z,18.55
2019-05-29T19:21:34.622Z,18.47
2019-05-29T19:24:03.798Z,18.34
2019-05-29T19:26:36.614Z,18.19
2019-05-29T19:29:04.263Z,18.12
2019-05-29T19:31:33.449Z,18.06
2019-05-29T19:34:02.632Z,18.02
2019-05-29T19:36:32.254Z,17.92
2019-05-29T19:39:00.695Z,17.82
2019-05-29T19:41:30.080Z,17.63
2019-05-29T19:43:59.434Z,17.42
2019-05-29T19:46:31.041Z,17.12
2019-05-29T19:49:00.787Z,16.85
2019-05-29T19:51:31.314Z,16.68
2019-05-29T19:54:00.880Z,16.58
2019-05-29T19:56:30.049Z,16.50
2019-05-29T19:58:59.215Z,16.46
2019-05-29T20:01:34.122Z,16.47
2019-05-29T20:03:59.668Z,16.46
2019-05-29T20:06:28.897Z,16.43
2019-05-29T20:08:58.233Z,16.38
2019-05-29T20:11:27.712Z,16.33
2019-05-29T20:13:56.823Z,16.28
2019-05-29T20:16:25.999Z,16.17
2019-05-29T20:18:55.169Z,16.10
2019-05-29T20:21:24.335Z,16.00
2019-05-29T20:23:53.515Z,15.92
2019-05-29T20:26:23.700Z,15.83
2019-05-29T20:28:52.872Z,15.74
2019-05-29T20:31:22.099Z,15.57
2019-05-29T20:33:51.257Z,15.37
2019-05-29T20:36:20.417Z,15.30
2019-05-29T20:38:49.625Z,15.34
2019-05-29T20:41:18.820Z,15.40
2019-05-29T20:43:47.988Z,15.45
2019-05-29T20:46:17.157Z,15.54
2019-05-29T20:48:46.504Z,15.61
2019-05-29T20:51:15.663Z,15.68
2019-05-29T20:53:44.833Z,15.73
2019-05-29T20:56:14.001Z,15.78
2019-05-29T20:58:43.166Z,15.81
2019-05-29T21:01:12.332Z,15.83
2019-05-29T21:03:42.581Z,15.84
2019-05-29T21:06:11.822Z,15.85
2019-05-29T21:08:41.202Z,15.85
2019-05-29T21:11:10.341Z,15.85
2019-05-29T21:13:39.838Z,15.88
2019-05-29T21:16:09.019Z,15.89
2019-05-29T21:18:38.182Z,15.89
2019-05-29T21:21:07.341Z,15.90
2019-05-29T21:23:36.567Z,15.89
2019-05-29T21:26:05.812Z,15.91
2019-05-29T21:28:41.782Z,15.91
2019-05-29T21:31:05.878Z,15.91
2019-05-29T21:33:35.751Z,15.93
2019-05-29T21:36:04.975Z,15.92
2019-05-29T21:38:34.139Z,15.94
2019-05-29T21:41:03.327Z,15.94
2019-05-29T21:43:32.486Z,15.94
2019-05-29T21:46:01.661Z,15.93
2019-05-29T21:48:30.857Z,15.95
2019-05-29T21:51:00.091Z,15.96
2019-05-29T21:53:29.263Z,15.96
2019-05-29T21:55:58.465Z,15.98
2019-05-29T21:58:27.630Z,15.99
2019-05-29T22:00:57.029Z,15.98
2019-05-29T22:03:27.181Z,15.98
2019-05-29T22:05:56.291Z,15.97
2019-05-29T22:08:25.458Z,15.97
2019-05-29T22:10:55.577Z,15.97
2019-05-29T22:13:24.764Z,15.96
2019-05-29T22:15:54.721Z,15.94
2019-05-29T22:18:23.984Z,15.92
2019-05-29T22:20:53.154Z,15.91
2019-05-29T22:23:22.319Z,15.88
2019-05-29T22:25:51.522Z,15.84
2019-05-29T22:28:20.691Z,15.82
2019-05-29T22:30:51.159Z,15.83
2019-05-29T22:33:20.451Z,15.82
2019-05-29T22:35:49.640Z,15.84
2019-05-29T22:38:18.831Z,15.89
2019-05-29T22:40:48.017Z,15.91
2019-05-29T22:43:17.189Z,15.94
2019-05-29T22:45:46.339Z,15.96
2019-05-29T22:48:15.517Z,15.94
2019-05-29T22:50:44.693Z,15.92
2019-05-29T22:53:13.859Z,15.92
2019-05-29T22:55:43.025Z,15.93
2019-05-29T22:58:12.192Z,15.92
2019-05-29T23:00:41.425Z,15.91
2019-05-29T23:03:10.617Z,15.91
2019-05-29T23:05:39.770Z,15.91
2019-05-29T23:08:08.939Z,15.95
2019-05-29T23:10:38.121Z,15.96
2019-05-29T23:13:07.282Z,15.98
2019-05-29T23:15:36.509Z,15.98
2019-05-29T23:18:05.783Z,15.96
2019-05-29T23:20:34.937Z,15.96
2019-05-29T23:23:04.167Z,15.98
2019-05-29T23:25:33.341Z,15.99
2019-05-29T23:28:03.205Z,16.00
2019-05-29T23:30:32.429Z,16.00
2019-05-29T23:33:01.602Z,16.00
2019-05-29T23:35:30.764Z,16.01
2019-05-29T23:38:00.185Z,16.00
2019-05-29T23:40:30.285Z,16.00
2019-05-29T23:42:59.536Z,15.99
2019-05-29T23:45:28.680Z,15.99
2019-05-29T23:47:57.882Z,15.99
2019-05-29T23:50:27.024Z,15.98
2019-05-29T23:52:56.182Z,15.99
2019-05-29T23:55:25.359Z,15.97
2019-05-29T23:57:55.645Z,15.95
